createdAt,value
2018-08-14T00:00:34.000Z,12.33
2018-08-14T00:03:03.735Z,12.50
2018-08-14T00:05:32.478Z,12.00
2018-08-14T00:08:01.277Z,11.63
2018-08-14T00:10:30.021Z,12.27
2018-08-14T00:12:59.272Z,12.13
2018-08-14T00:15:28.105Z,12.60
2018-08-14T00:17:56.853Z,13.83
2018-08-14T00:20:25.682Z,14.60
2018-08-14T00:22:54.478Z,15.03
2018-08-14T00:25:23.385Z,15.67
2018-08-14T00:27:53.532Z,15.53
2018-08-14T00:30:24.856Z,16.90
2018-08-14T00:32:53.864Z,16.20
2018-08-14T00:35:22.765Z,16.67
2018-08-14T00:37:51.604Z,17.10
2018-08-14T00:40:21.872Z,18.63
2018-08-14T00:42:55.443Z,20.00
2018-08-14T00:45:24.373Z,19.13
2018-08-14T00:47:53.321Z,20.27
2018-08-14T00:50:22.247Z,20.17
2018-08-14T00:52:51.116Z,20.97
2018-08-14T00:55:20.959Z,21.17
2018-08-14T00:57:50.406Z,22.37
2018-08-14T01:00:25.021Z,22.40
2018-08-14T01:02:54.271Z,22.73
2018-08-14T01:05:23.199Z,23.03
2018-08-14T01:07:52.129Z,23.70
2018-08-14T01:10:21.068Z,25.37
2018-08-14T01:12:52.325Z,27.27
2018-08-14T01:15:22.598Z,27.30
2018-08-14T01:17:52.926Z,28.00
2018-08-14T01:20:23.119Z,28.53
2018-08-14T01:22:52.115Z,30.47
2018-08-14T01:25:20.994Z,31.13
2018-08-14T01:27:51.628Z,31.17
2018-08-14T01:30:22.149Z,30.87
2018-08-14T01:32:51.054Z,30.47
2018-08-14T01:35:19.994Z,28.80
2018-08-14T01:37:48.972Z,28.57
2018-08-14T01:40:17.890Z,28.10
2018-08-14T01:42:46.764Z,26.27
2018-08-14T01:45:16.107Z,25.87
2018-08-14T01:47:45.353Z,25.43
2018-08-14T01:50:18.098Z,23.63
2018-08-14T01:52:47.139Z,24.53
2018-08-14T01:55:16.520Z,24.80
2018-08-14T01:57:45.484Z,24.23
2018-08-14T02:00:14.357Z,23.90
2018-08-14T02:02:43.221Z,23.10
2018-08-14T02:05:12.233Z,24.73
2018-08-14T02:07:41.329Z,24.10
2018-08-14T02:10:12.357Z,27.50
2018-08-14T02:12:41.273Z,26.43
2018-08-14T02:15:14.571Z,28.43
2018-08-14T02:17:43.816Z,33.37
2018-08-14T02:20:15.103Z,34.50
2018-08-14T02:22:44.109Z,34.93
2018-08-14T02:25:12.933Z,35.90
2018-08-14T02:27:42.435Z,38.43
2018-08-14T02:30:11.328Z,40.83
2018-08-14T02:32:40.315Z,42.07
2018-08-14T02:35:10.544Z,43.03
2018-08-14T02:37:39.432Z,45.43
2018-08-14T02:40:10.553Z,44.87
2018-08-14T02:42:39.404Z,47.00
2018-08-14T02:45:09.495Z,49.63
2018-08-14T02:47:38.437Z,51.83
2018-08-14T02:50:07.933Z,53.87
2018-08-14T02:52:36.847Z,55.30
2018-08-14T02:55:06.694Z,57.87
2018-08-14T02:57:35.667Z,57.13
2018-08-14T03:00:07.130Z,60.33
2018-08-14T03:02:36.092Z,58.97
2018-08-14T03:05:05.455Z,59.97
2018-08-14T03:07:34.429Z,60.47
2018-08-14T03:10:03.378Z,60.90
2018-08-14T03:12:32.705Z,59.00
2018-08-14T03:15:02.358Z,59.43
2018-08-14T03:17:31.486Z,58.30
2018-08-14T03:20:00.702Z,57.93
2018-08-14T03:22:29.600Z,60.70
2018-08-14T03:24:58.405Z,59.30
2018-08-14T03:27:27.237Z,59.27
2018-08-14T03:29:56.060Z,59.23
2018-08-14T03:32:24.965Z,57.97
2018-08-14T03:34:53.825Z,57.27
2018-08-14T03:37:22.699Z,55.47
2018-08-14T03:39:52.070Z,54.40
2018-08-14T03:42:20.893Z,56.20
2018-08-14T03:44:51.707Z,55.40
2018-08-14T03:47:20.609Z,54.97
2018-08-14T03:49:49.965Z,54.90
2018-08-14T03:52:18.892Z,52.57
2018-08-14T03:54:47.875Z,53.27
2018-08-14T03:57:16.795Z,53.97
2018-08-14T03:59:45.654Z,53.53
2018-08-14T04:02:15.752Z,53.37
2018-08-14T04:04:44.582Z,52.47
2018-08-14T04:07:13.489Z,53.93
2018-08-14T04:09:42.549Z,52.37
2018-08-14T04:12:11.515Z,54.10
2018-08-14T04:14:40.359Z,52.83
2018-08-14T04:17:10.552Z,52.07
2018-08-14T04:19:39.478Z,53.07
2018-08-14T04:22:09.328Z,54.37
2018-08-14T04:24:38.192Z,53.80
2018-08-14T04:27:07.141Z,53.47
2018-08-14T04:29:36.047Z,53.50
2018-08-14T04:32:05.053Z,54.40
2018-08-14T04:34:34.046Z,52.67
2018-08-14T04:37:02.877Z,51.37
2018-08-14T04:39:31.864Z,52.23
2018-08-14T04:42:00.734Z,53.37
2018-08-14T04:44:29.708Z,50.97
2018-08-14T04:46:58.692Z,51.40
2018-08-14T04:49:27.612Z,50.10
2018-08-14T04:51:56.471Z,49.60
2018-08-14T04:54:25.219Z,50.37
2018-08-14T04:56:54.132Z,48.53
2018-08-14T04:59:23.090Z,48.10
2018-08-14T05:01:51.946Z,49.33
2018-08-14T05:04:20.777Z,49.20
2018-08-14T05:06:50.331Z,48.90
2018-08-14T05:09:19.188Z,49.77
2018-08-14T05:11:48.139Z,50.20
2018-08-14T05:14:17.003Z,50.80
2018-08-14T05:16:46.403Z,49.80
2018-08-14T05:19:15.313Z,50.23
2018-08-14T05:21:44.181Z,48.73
2018-08-14T05:24:13.206Z,49.80
2018-08-14T05:26:42.062Z,50.33
2018-08-14T05:29:11.145Z,51.50
2018-08-14T05:31:40.024Z,49.83
2018-08-14T05:34:09.294Z,51.37
2018-08-14T05:36:38.188Z,49.57
2018-08-14T05:39:09.167Z,50.77
2018-08-14T05:41:38.498Z,51.00
2018-08-14T05:44:21.057Z,53.13
2018-08-14T05:46:50.207Z,52.87
2018-08-14T05:49:19.331Z,53.33
2018-08-14T05:51:48.689Z,53.90
2018-08-14T05:54:17.653Z,55.20
2018-08-14T05:56:47.025Z,53.17
2018-08-14T05:59:15.928Z,54.07
2018-08-14T06:01:44.930Z,52.40
2018-08-14T06:04:14.201Z,54.33
2018-08-14T06:06:44.927Z,53.47
2018-08-14T06:09:14.017Z,50.87
2018-08-14T06:11:43.328Z,51.17
2018-08-14T06:14:12.261Z,52.07
2018-08-14T06:16:41.481Z,54.53
2018-08-14T06:19:10.598Z,53.20
2018-08-14T06:21:39.485Z,52.57
2018-08-14T06:24:08.417Z,53.93
2018-08-14T06:26:37.380Z,52.93
2018-08-14T06:29:06.710Z,54.23
2018-08-14T06:31:35.550Z,54.80
2018-08-14T06:34:05.464Z,54.90
2018-08-14T06:36:34.453Z,55.47
2018-08-14T06:39:05.118Z,54.23
2018-08-14T06:41:34.314Z,53.73
2018-08-14T06:44:03.284Z,51.73
2018-08-14T06:46:33.555Z,53.23
2018-08-14T06:49:02.714Z,51.97
2018-08-14T06:51:31.683Z,52.93
2018-08-14T06:54:01.878Z,52.13
2018-08-14T06:56:32.837Z,51.47
2018-08-14T06:59:01.739Z,49.40
2018-08-14T07:01:30.637Z,51.13
2018-08-14T07:04:00.345Z,51.83
2018-08-14T07:06:30.548Z,50.70
2018-08-14T07:09:01.774Z,51.90
2018-08-14T07:11:31.119Z,47.33
2018-08-14T07:14:08.021Z,23.47
2018-08-14T07:16:57.029Z,18.87
2018-08-14T07:19:26.034Z,13.23
2018-08-14T07:21:57.804Z,13.13
2018-08-14T07:24:26.745Z,13.27
2018-08-14T07:26:56.156Z,15.33
2018-08-14T07:29:25.741Z,15.57
2018-08-14T07:31:54.799Z,16.90
2018-08-14T07:34:23.629Z,17.40
2018-08-14T07:36:52.431Z,18.13
2018-08-14T07:39:22.251Z,18.13
2018-08-14T07:41:51.386Z,17.63
2018-08-14T07:44:21.025Z,16.70
2018-08-14T07:46:50.102Z,14.50
2018-08-14T07:49:19.335Z,13.23
2018-08-14T07:51:48.237Z,12.57
2018-08-14T07:54:17.401Z,11.90
2018-08-14T07:56:47.029Z,11.33
2018-08-14T07:59:17.212Z,9.57
2018-08-14T08:01:46.217Z,9.27
2018-08-14T08:04:15.183Z,9.33
2018-08-14T08:06:44.022Z,7.93
2018-08-14T08:09:14.459Z,8.50
2018-08-14T08:11:43.879Z,7.80
2018-08-14T08:14:12.820Z,8.40
2018-08-14T08:16:42.296Z,9.47
2018-08-14T08:19:11.173Z,9.23
2018-08-14T08:21:40.201Z,8.50
2018-08-14T08:24:09.277Z,8.13
2018-08-14T08:26:38.321Z,8.00
2018-08-14T08:29:07.685Z,8.70
2018-08-14T08:31:36.602Z,7.47
2018-08-14T08:34:05.746Z,6.60
2018-08-14T10:26:01.705Z,1.47
2018-08-14T10:28:30.478Z,1.57
2018-08-14T10:30:59.353Z,1.60
2018-08-14T10:33:28.093Z,1.30
2018-08-14T10:35:56.806Z,1.60
2018-08-14T10:38:25.526Z,1.37
2018-08-14T10:40:54.277Z,1.53
2018-08-14T10:43:23.023Z,1.87
2018-08-14T10:45:51.773Z,1.63
2018-08-14T10:48:20.568Z,1.70
2018-08-14T10:50:49.242Z,1.50
2018-08-14T10:53:17.935Z,1.87
2018-08-14T10:55:46.668Z,1.33
2018-08-14T10:58:15.497Z,2.00
2018-08-14T11:00:44.018Z,1.30
2018-08-14T11:03:12.794Z,1.43
2018-08-14T11:05:41.614Z,1.20
2018-08-14T11:08:10.370Z,1.73
2018-08-14T11:10:44.418Z,1.40
2018-08-14T11:13:13.184Z,1.30
2018-08-14T11:15:41.945Z,1.87
2018-08-14T11:18:10.693Z,1.90
2018-08-14T11:20:39.528Z,1.90
2018-08-14T11:23:08.418Z,1.90
2018-08-14T11:25:37.098Z,1.40
2018-08-14T11:28:05.973Z,1.70
2018-08-14T11:30:34.738Z,1.90
2018-08-14T11:33:03.501Z,1.57
2018-08-14T11:35:37.753Z,2.03
2018-08-14T11:38:06.499Z,1.97
2018-08-14T11:40:35.237Z,1.80
2018-08-14T11:43:04.380Z,1.70
2018-08-14T11:45:33.402Z,1.80
2018-08-14T11:48:02.129Z,1.90
2018-08-14T11:50:30.798Z,1.80
2018-08-14T11:52:59.486Z,2.17
2018-08-14T11:55:28.202Z,1.73
2018-08-14T11:57:56.924Z,1.50
2018-08-14T12:00:26.514Z,1.80
2018-08-14T12:02:56.771Z,1.50
2018-08-14T12:05:25.736Z,1.67
2018-08-14T12:07:54.653Z,1.60
2018-08-14T12:10:23.483Z,1.50
2018-08-14T12:12:52.297Z,2.00
2018-08-14T12:15:21.053Z,1.93
2018-08-14T12:17:49.744Z,1.63
2018-08-14T12:20:20.046Z,1.60
2018-08-14T12:22:48.771Z,1.77
2018-08-14T12:25:18.649Z,1.43
2018-08-14T12:27:48.002Z,2.10
2018-08-14T12:30:25.793Z,1.70
2018-08-14T12:32:54.576Z,1.67
2018-08-14T12:35:23.368Z,1.80
2018-08-14T12:37:52.253Z,1.67
2018-08-14T12:40:21.034Z,1.80
2018-08-14T12:42:49.798Z,1.83
2018-08-14T12:45:20.613Z,1.73
2018-08-14T12:47:49.801Z,1.60
2018-08-14T12:50:19.701Z,1.97
2018-08-14T12:52:48.624Z,1.80
2018-08-14T12:55:17.860Z,1.50
2018-08-14T12:57:47.405Z,1.60
2018-08-14T13:00:23.475Z,1.60
2018-08-14T13:02:52.773Z,1.53
2018-08-14T13:05:22.009Z,1.80
2018-08-14T13:07:50.764Z,1.70
2018-08-14T13:10:19.572Z,1.60
2018-08-14T13:12:48.334Z,1.60
2018-08-14T13:15:17.178Z,1.67
2018-08-14T13:17:55.896Z,1.70
2018-08-14T13:20:24.688Z,1.37
2018-08-14T13:22:53.420Z,1.90
2018-08-14T13:25:22.177Z,1.60
2018-08-14T13:27:50.938Z,1.27
2018-08-14T13:30:19.625Z,1.83
2018-08-14T13:32:48.598Z,1.60
2018-08-14T13:35:17.278Z,1.50
2018-08-14T13:37:46.005Z,1.43
2018-08-14T13:40:15.247Z,1.60
2018-08-14T13:42:43.993Z,1.70
2018-08-14T13:45:13.423Z,1.40
2018-08-14T13:47:42.605Z,1.63
2018-08-14T13:50:12.312Z,1.40
2018-08-14T13:52:41.106Z,1.50
2018-08-14T13:55:11.907Z,1.40
2018-08-14T13:57:40.984Z,1.63
2018-08-14T14:00:11.829Z,1.50
2018-08-14T14:02:41.268Z,1.40
2018-08-14T14:05:10.343Z,1.47
2018-08-14T14:07:45.481Z,1.50
2018-08-14T14:10:15.657Z,1.50
2018-08-14T14:12:44.357Z,1.50
2018-08-14T14:15:19.785Z,1.60
2018-08-14T14:17:49.608Z,1.33
2018-08-14T14:20:20.936Z,1.50
2018-08-14T14:22:49.740Z,1.30
2018-08-14T14:25:18.466Z,1.33
2018-08-14T14:27:47.164Z,1.53
2018-08-14T14:30:16.614Z,1.33
2018-08-14T14:32:45.343Z,1.27
2018-08-14T14:35:14.534Z,1.40
2018-08-14T14:37:43.657Z,1.50
2018-08-14T14:40:28.721Z,1.70
2018-08-14T14:42:59.897Z,1.07
2018-08-14T14:45:28.595Z,1.60
2018-08-14T14:47:57.342Z,1.50
2018-08-14T14:50:26.138Z,1.97
2018-08-14T14:52:54.818Z,1.33
2018-08-14T14:55:23.990Z,1.50
2018-08-14T14:57:53.213Z,1.10
2018-08-14T15:00:26.377Z,1.70
2018-08-14T15:02:56.665Z,1.70
2018-08-14T15:05:25.366Z,1.30
2018-08-14T15:07:54.093Z,1.43
2018-08-14T15:10:22.874Z,3.03
2018-08-14T15:12:51.625Z,3.33
2018-08-14T15:15:20.306Z,2.50
2018-08-14T15:17:49.732Z,1.87
2018-08-14T15:20:21.356Z,1.30
2018-08-14T15:22:51.497Z,1.23
2018-08-14T15:25:21.398Z,1.50
2018-08-14T15:29:00.428Z,1.33
2018-08-14T15:31:29.120Z,1.30
2018-08-14T15:33:58.238Z,1.30
2018-08-14T15:36:28.297Z,1.20
2018-08-14T15:38:58.349Z,1.43
2018-08-14T15:41:27.414Z,1.50
2018-08-14T15:43:56.198Z,1.23
2018-08-14T15:46:25.025Z,1.10
2018-08-14T15:48:54.008Z,1.40
2018-08-14T15:51:22.709Z,1.23
2018-08-14T15:53:51.903Z,1.50
2018-08-14T15:56:20.902Z,1.30
2018-08-14T15:58:49.633Z,1.03
2018-08-14T16:01:18.422Z,1.40
2018-08-14T16:03:47.174Z,2.10
2018-08-14T16:06:15.909Z,1.30
2018-08-14T16:08:44.708Z,2.03
2018-08-14T16:11:13.431Z,1.80
2018-08-14T16:13:42.191Z,1.63
2018-08-14T16:16:10.942Z,1.30
2018-08-14T16:18:39.660Z,1.10
2018-08-14T16:21:08.772Z,1.20
2018-08-14T16:23:37.500Z,1.67
2018-08-14T16:26:06.255Z,1.30
2018-08-14T16:28:34.985Z,1.20
2018-08-14T16:31:03.793Z,1.20
2018-08-14T16:33:39.622Z,1.30
2018-08-14T16:36:08.375Z,1.30
2018-08-14T16:38:37.029Z,1.23
2018-08-14T16:41:06.321Z,1.33
2018-08-14T16:43:34.962Z,1.30
2018-08-14T16:46:03.722Z,1.07
2018-08-14T16:48:32.569Z,1.00
2018-08-14T16:51:08.044Z,1.93
2018-08-14T16:53:36.861Z,1.10
2018-08-14T16:56:05.632Z,0.87
2018-08-14T16:58:34.354Z,0.90
2018-08-14T17:01:03.091Z,1.00
2018-08-14T17:03:31.824Z,1.00
2018-08-14T17:06:01.207Z,1.23
2018-08-14T17:08:29.893Z,1.20
2018-08-14T17:10:58.591Z,1.10
2018-08-14T17:13:27.326Z,0.90
2018-08-14T17:15:56.113Z,1.40
2018-08-14T17:18:24.798Z,1.30
2018-08-14T17:20:52.210Z,1.10
2018-08-14T17:23:21.005Z,1.23
2018-08-14T17:25:49.757Z,1.10
2018-08-14T17:28:18.598Z,0.77
2018-08-14T17:30:47.290Z,0.90
2018-08-14T17:33:16.014Z,1.10
2018-08-14T17:35:44.737Z,1.00
2018-08-14T17:38:13.427Z,1.00
2018-08-14T17:40:42.189Z,0.87
2018-08-14T17:43:10.941Z,1.00
2018-08-14T17:45:39.717Z,1.00
2018-08-14T17:48:08.495Z,0.80
2018-08-14T17:50:37.400Z,1.20
2018-08-14T17:53:06.270Z,1.00
2018-08-14T17:55:35.002Z,1.10
2018-08-14T17:58:03.799Z,1.07
2018-08-14T18:00:33.532Z,1.17
2018-08-14T18:03:05.634Z,1.20
2018-08-14T18:05:34.414Z,1.30
2018-08-14T18:08:03.181Z,1.40
2018-08-14T18:10:31.966Z,1.30
2018-08-14T18:13:00.717Z,1.40
2018-08-14T18:15:29.479Z,1.30
2018-08-14T18:17:58.176Z,1.60
2018-08-14T18:20:26.942Z,1.63
2018-08-14T18:22:55.619Z,1.60
2018-08-14T18:25:25.131Z,1.60
2018-08-14T18:27:54.262Z,1.70
2018-08-14T18:30:23.444Z,1.73
2018-08-14T18:32:52.577Z,1.83
2018-08-14T18:35:21.346Z,1.63
2018-08-14T18:37:50.523Z,1.83
2018-08-14T18:40:20.605Z,1.90
2018-08-14T18:42:49.755Z,2.00
2018-08-14T18:45:19.899Z,1.80
2018-08-14T18:47:48.618Z,1.70
2018-08-14T18:50:18.236Z,1.67
2018-08-14T18:52:46.940Z,2.00
2018-08-14T18:55:16.893Z,1.47
2018-08-14T18:57:46.609Z,1.50
2018-08-14T19:07:21.236Z,1.80
2018-08-14T19:09:49.939Z,1.40
2018-08-14T19:12:18.687Z,1.67
2018-08-14T19:14:47.424Z,1.50
2018-08-14T19:17:16.310Z,1.70
2018-08-14T19:19:45.070Z,1.50
2018-08-14T19:22:13.810Z,1.57
2018-08-14T19:24:42.559Z,1.47
2018-08-14T19:27:11.558Z,1.70
2018-08-14T19:29:40.246Z,1.63
2018-08-14T19:32:09.041Z,1.70
2018-08-14T19:34:37.753Z,1.77
2018-08-14T19:37:06.489Z,1.53
2018-08-14T19:39:35.203Z,1.63
2018-08-14T19:42:03.981Z,1.60
2018-08-14T19:44:32.790Z,1.97
2018-08-14T19:47:01.559Z,1.83
2018-08-14T19:49:30.187Z,2.13
2018-08-14T19:51:58.934Z,1.80
2018-08-14T19:54:27.658Z,1.70
2018-08-14T19:56:56.347Z,2.00
2018-08-14T19:59:25.174Z,2.10
2018-08-14T20:01:53.901Z,2.10
2018-08-14T20:04:22.602Z,2.10
2018-08-14T20:06:53.020Z,2.00
2018-08-14T20:09:21.754Z,1.90
2018-08-14T20:11:50.539Z,1.80
2018-08-14T20:14:19.308Z,1.93
2018-08-14T20:16:48.141Z,2.10
2018-08-14T20:19:17.112Z,1.97
2018-08-14T20:21:45.894Z,2.00
2018-08-14T20:24:14.719Z,2.13
2018-08-14T20:26:43.449Z,2.00
2018-08-14T20:29:12.197Z,1.83
2018-08-14T20:31:40.959Z,1.83
2018-08-14T20:34:09.727Z,2.10
2018-08-14T20:36:38.534Z,2.30
2018-08-14T20:39:07.670Z,2.37
2018-08-14T20:41:36.537Z,2.27
2018-08-14T20:44:05.337Z,2.33
2018-08-14T20:46:34.116Z,2.20
2018-08-14T20:49:02.833Z,2.20
2018-08-14T20:51:31.896Z,2.43
2018-08-14T20:54:00.866Z,2.83
2018-08-14T20:56:29.571Z,2.50
2018-08-14T20:58:58.310Z,2.70
2018-08-14T21:01:27.115Z,2.57
2018-08-14T21:03:55.894Z,2.70
2018-08-14T21:06:24.685Z,2.30
2018-08-14T21:08:53.621Z,2.33
2018-08-14T21:11:22.349Z,2.43
2018-08-14T21:13:51.082Z,2.43
2018-08-14T21:16:27.716Z,2.60
2018-08-14T21:18:58.117Z,2.87
2018-08-14T21:21:27.300Z,2.60
2018-08-14T21:23:56.083Z,2.70
2018-08-14T21:26:25.297Z,2.50
2018-08-14T21:28:53.993Z,3.00
2018-08-14T21:31:22.766Z,2.93
2018-08-14T21:33:51.530Z,3.10
2018-08-14T21:36:20.327Z,2.83
2018-08-14T21:38:49.025Z,2.80
2018-08-14T21:41:17.854Z,3.10
2018-08-14T21:43:46.541Z,3.27
2018-08-14T21:46:15.346Z,2.87
2018-08-14T21:48:44.035Z,2.83
2018-08-14T21:51:12.764Z,2.97
2018-08-14T21:53:41.505Z,2.80
2018-08-14T21:56:10.262Z,3.13
2018-08-14T21:58:39.002Z,3.60
2018-08-14T22:01:09.083Z,3.30
2018-08-14T22:03:43.159Z,3.23
2018-08-14T22:06:12.935Z,2.97
2018-08-14T22:08:41.733Z,3.20
2018-08-14T22:11:10.994Z,3.37
2018-08-14T22:13:39.858Z,3.90
2018-08-14T22:16:08.946Z,3.40
2018-08-14T22:18:37.694Z,4.00
2018-08-14T22:21:06.442Z,4.70
2018-08-14T22:23:35.289Z,4.30
2018-08-14T22:26:04.060Z,4.80
2018-08-14T22:28:32.816Z,4.73
2018-08-14T22:31:01.629Z,5.20
2018-08-14T22:33:30.367Z,5.17
2018-08-14T22:35:59.108Z,5.60
2018-08-14T22:38:27.831Z,6.10
2018-08-14T22:40:56.581Z,6.33
2018-08-14T22:43:25.363Z,7.07
2018-08-14T22:45:54.063Z,6.77
2018-08-14T22:48:22.734Z,7.20
2018-08-14T22:50:51.484Z,7.40
2018-08-14T22:53:20.165Z,7.37
2018-08-14T22:55:48.876Z,7.53
2018-08-14T22:58:17.569Z,7.87
2018-08-14T23:00:46.251Z,8.07
2018-08-14T23:03:15.023Z,7.90
2018-08-14T23:05:43.762Z,7.87
2018-08-14T23:08:12.472Z,7.60
2018-08-14T23:10:41.202Z,7.57
2018-08-14T23:13:09.885Z,7.40
2018-08-14T23:15:38.645Z,7.93
2018-08-14T23:18:07.412Z,7.77
2018-08-14T23:20:36.174Z,7.77
2018-08-14T23:23:04.936Z,7.23
2018-08-14T23:25:33.624Z,8.67
2018-08-14T23:28:02.333Z,7.40
2018-08-14T23:30:30.998Z,8.10
2018-08-14T23:32:59.706Z,6.70
2018-08-14T23:35:28.393Z,6.30
2018-08-14T23:37:57.130Z,6.67
2018-08-14T23:40:25.808Z,6.87
2018-08-14T23:42:54.541Z,6.70
2018-08-14T23:45:23.232Z,6.30
2018-08-14T23:47:51.946Z,6.30
2018-08-14T23:50:20.703Z,6.37
2018-08-14T23:52:49.418Z,6.17
2018-08-14T23:55:18.137Z,6.40
2018-08-14T23:57:46.819Z,6.97
